Terminal Aerodrome Forecast
Issued by NWS Houston/Galveston, TX

Current Version | Previous Version | Text Only | Print | Product List | Glossary On
Versions: 1 2 3 4 5 6 7 8 9 10 11 12 13 14 15 16 17 18 19 20 21 22 23 24 25 26 27 28 29 30 31 32 33 34 35 36 37 38 39 40 41 42 43 44 45 46 47
000
FTUS44 KHGX 280520
TAFGLS
TAF
KGLS 280520Z 2806/2906 12015KT P6SM VCSH FEW020 BKN100
     FM280900 14007KT P6SM BKN015
     FM281700 15012KT P6SM SCT025
     FM282100 15013KT P6SM SCT250=

USA.gov is the U.S. government's official web portal to all federal, state and local government web resources and services.